Time;durP1;ratioP1;P1;durP2;ratioP2;P2;SDS_P1;SDS_P2;PMS_P1;PMS_P2;Temp;Humidity;BMP_temperature;BMP_pressure;BME280_temperature;BME280_humidity;BME280_pressure;Samples;Min_cycle;Max_cycle;Signal;HPM_P1;HPM_P2
2022/01/31 00:01:01;;;;;;;15.40;4.57;;;8.10;63.90;;;;;;5076595;28;20486;-63
2022/01/31 00:03:29;;;;;;;13.65;5.07;;;8.10;64.00;;;;;;5094725;28;20030;-63
2022/01/31 00:05:55;;;;;;;11.20;4.80;;;8.10;64.20;;;;;;5093284;28;20034;-63
2022/01/31 00:08:23;;;;;;;12.35;5.47;;;8.00;64.10;;;;;;5094936;28;20032;-63
2022/01/31 00:10:50;;;;;;;14.35;4.88;;;8.00;64.30;;;;;;5094536;28;20016;-63
2022/01/31 00:13:30;;;;;;;13.60;5.57;;;8.00;64.40;;;;;;5094026;28;20031;-64
2022/01/31 00:15:57;;;;;;;14.27;5.43;;;8.00;64.50;;;;;;5094568;28;20055;-63
2022/01/31 00:18:23;;;;;;;12.45;5.03;;;8.00;64.50;;;;;;5093360;28;20033;-63
2022/01/31 00:20:49;;;;;;;12.52;5.50;;;8.00;64.60;;;;;;5094575;28;20372;-63
2022/01/31 00:23:15;;;;;;;19.08;5.28;;;8.00;64.60;;;;;;5093345;28;20028;-63
2022/01/31 00:25:40;;;;;;;14.48;4.72;;;8.00;64.60;;;;;;5093439;28;20031;-63
2022/01/31 00:28:06;;;;;;;12.85;5.75;;;8.10;64.80;;;;;;5094685;28;20020;-63
2022/01/31 00:30:32;;;;;;;12.65;5.47;;;8.00;64.70;;;;;;5093138;28;20036;-63
2022/01/31 00:32:58;;;;;;;9.82;4.70;;;8.10;64.80;;;;;;5093972;28;20461;-63
2022/01/31 00:35:25;;;;;;;14.50;5.13;;;8.00;64.80;;;;;;5094897;28;20024;-63
2022/01/31 00:37:52;;;;;;;16.38;5.18;;;8.00;64.90;;;;;;5094204;28;20027;-63
2022/01/31 00:40:17;;;;;;;13.52;5.03;;;8.00;65.00;;;;;;5093383;28;20047;-64
2022/01/31 00:42:43;;;;;;;13.25;5.05;;;8.00;65.00;;;;;;5093887;28;20028;-63
2022/01/31 00:45:27;;;;;;;20.85;6.00;;;8.00;65.20;;;;;;5093335;28;20035;-63
2022/01/31 00:48:05;;;;;;;12.27;4.47;;;8.00;65.40;;;;;;5093207;28;20032;-64
2022/01/31 00:50:38;;;;;;;12.55;4.95;;;8.00;65.70;;;;;;5092722;28;20047;-63
2022/01/31 00:53:04;;;;;;;12.93;5.03;;;8.00;66.00;;;;;;5094504;28;20036;-63
2022/01/31 00:55:29;;;;;;;13.90;5.72;;;8.00;66.30;;;;;;5093373;28;20020;-63
2022/01/31 00:57:55;;;;;;;15.80;5.47;;;8.00;66.60;;;;;;5093263;28;20338;-63
2022/01/31 01:00:21;;;;;;;15.93;5.40;;;8.00;66.90;;;;;;5075698;28;20439;-63
2022/01/31 01:02:47;;;;;;;16.10;5.50;;;7.90;67.20;;;;;;5069765;28;20028;-64
2022/01/31 01:05:15;;;;;;;14.15;5.15;;;7.90;67.50;;;;;;5093048;28;20054;-64
2022/01/31 01:07:45;;;;;;;13.50;4.90;;;7.90;67.80;;;;;;5094117;28;20070;-64
2022/01/31 01:10:15;;;;;;;14.25;5.07;;;7.90;68.10;;;;;;5093674;28;20047;-64
2022/01/31 01:12:42;;;;;;;17.30;5.30;;;7.90;68.30;;;;;;5094290;28;20020;-63
2022/01/31 01:15:08;;;;;;;15.30;5.30;;;7.80;68.50;;;;;;5093286;28;20066;-64
2022/01/31 01:17:34;;;;;;;10.88;5.10;;;7.80;68.80;;;;;;5092971;28;20120;-64
2022/01/31 01:20:00;;;;;;;14.32;5.32;;;7.90;69.10;;;;;;5094049;28;20119;-63
2022/01/31 01:22:26;;;;;;;15.52;5.97;;;7.80;69.20;;;;;;5092790;28;20103;-63
2022/01/31 01:24:51;;;;;;;15.55;5.95;;;7.80;69.40;;;;;;5093016;28;20028;-63
2022/01/31 01:27:21;;;;;;;15.35;5.55;;;7.80;69.60;;;;;;5076009;28;20032;-63
2022/01/31 01:29:48;;;;;;;10.60;4.80;;;7.80;69.90;;;;;;5093138;28;20038;-63
2022/01/31 01:32:16;;;;;;;12.07;5.15;;;7.70;70.10;;;;;;5091991;28;20107;-63
2022/01/31 01:34:44;;;;;;;16.35;5.18;;;7.70;70.40;;;;;;5076991;28;20028;-63
2022/01/31 01:37:10;;;;;;;14.40;5.60;;;7.70;70.70;;;;;;5092608;28;20142;-63
2022/01/31 01:39:35;;;;;;;12.52;5.05;;;7.70;70.90;;;;;;5092814;28;20107;-63
2022/01/31 01:42:02;;;;;;;15.57;5.43;;;7.60;71.20;;;;;;5092473;28;20058;-63
2022/01/31 01:44:48;;;;;;;16.73;5.85;;;7.60;71.40;;;;;;5093445;28;20066;-63
2022/01/31 01:47:19;;;;;;;12.52;5.00;;;7.60;71.70;;;;;;5093151;28;20028;-63
2022/01/31 01:49:46;;;;;;;14.40;5.85;;;7.60;71.80;;;;;;5096484;28;20059;-63
2022/01/31 01:52:13;;;;;;;9.93;4.68;;;7.60;72.00;;;;;;5096418;28;20142;-63
2022/01/31 01:54:39;;;;;;;10.88;4.80;;;7.50;72.20;;;;;;5096645;28;20035;-63
2022/01/31 01:57:05;;;;;;;13.40;4.80;;;7.50;72.40;;;;;;5096164;28;20028;-63
2022/01/31 01:59:36;;;;;;;11.43;4.97;;;7.50;72.50;;;;;;5096719;28;20028;-63
2022/01/31 02:02:35;;;;;;;10.05;4.60;;;7.50;72.60;;;;;;5074436;28;20040;-62
2022/01/31 02:05:02;;;;;;;10.15;4.45;;;7.50;72.70;;;;;;5096337;28;20024;-62
2022/01/31 02:07:34;;;;;;;10.18;4.85;;;7.40;72.70;;;;;;5108427;28;20020;-63
2022/01/31 02:10:04;;;;;;;12.27;4.28;;;7.40;72.90;;;;;;5095885;28;20451;-63
2022/01/31 02:12:43;;;;;;;9.20;4.55;;;7.50;73.10;;;;;;5079939;28;20027;-63
2022/01/31 02:15:14;;;;;;;15.07;5.03;;;7.40;73.30;;;;;;5096195;28;20421;-63
2022/01/31 02:18:00;;;;;;;12.07;4.35;;;7.40;73.30;;;;;;5089207;28;20425;-63
2022/01/31 02:20:26;;;;;;;12.23;4.67;;;7.40;73.40;;;;;;5095653;28;20027;-63
2022/01/31 02:22:54;;;;;;;13.27;4.72;;;7.50;73.60;;;;;;5095454;28;20081;-63
2022/01/31 02:25:27;;;;;;;9.30;4.88;;;7.50;73.80;;;;;;5095996;28;20365;-63
2022/01/31 02:28:28;;;;;;;11.70;4.20;;;7.50;73.80;;;;;;5095136;28;20036;-63
2022/01/31 02:30:54;;;;;;;11.63;4.03;;;7.50;73.80;;;;;;5095486;28;20012;-63
2022/01/31 02:33:20;;;;;;;9.40;4.18;;;7.50;74.10;;;;;;5095673;28;20181;-63
2022/01/31 02:35:57;;;;;;;9.73;4.20;;;7.50;74.30;;;;;;5078899;28;20020;-63
2022/01/31 02:38:24;;;;;;;10.02;4.43;;;7.50;74.40;;;;;;5096056;28;20020;-63
2022/01/31 02:40:51;;;;;;;9.85;4.22;;;7.60;74.60;;;;;;5095166;28;20016;-63
2022/01/31 02:43:30;;;;;;;10.20;4.57;;;7.60;74.60;;;;;;5095935;28;20449;-63
2022/01/31 02:45:57;;;;;;;10.90;4.20;;;7.60;74.90;;;;;;5078765;28;20021;-63
2022/01/31 02:48:25;;;;;;;10.27;4.22;;;7.60;74.90;;;;;;5094742;28;20459;-63
2022/01/31 02:50:52;;;;;;;10.27;4.30;;;7.70;75.10;;;;;;5095103;28;20020;-63
2022/01/31 02:53:27;;;;;;;12.63;4.50;;;7.70;75.20;;;;;;5094104;28;20016;-63
2022/01/31 02:55:55;;;;;;;9.40;4.32;;;7.70;75.30;;;;;;5093677;28;20360;-63
2022/01/31 02:58:23;;;;;;;10.07;4.72;;;7.70;75.40;;;;;;5087936;28;20035;-63
2022/01/31 03:00:52;;;;;;;11.48;5.03;;;7.70;75.60;;;;;;5093513;28;20024;-63
2022/01/31 03:03:27;;;;;;;11.27;4.38;;;7.70;76.00;;;;;;5094255;28;20373;-63
2022/01/31 03:05:54;;;;;;;9.88;4.15;;;7.70;76.00;;;;;;5077162;28;20361;-63
2022/01/31 03:08:19;;;;;;;10.33;4.17;;;7.70;76.10;;;;;;5094299;28;20016;-63
2022/01/31 03:10:45;;;;;;;9.35;3.55;;;7.80;76.30;;;;;;5093347;28;20423;-63
2022/01/31 03:13:18;;;;;;;6.40;3.47;;;7.80;76.40;;;;;;5094766;28;20313;-63
2022/01/31 03:15:51;;;;;;;9.88;3.47;;;7.80;76.50;;;;;;5096210;28;20083;-63
2022/01/31 03:18:41;;;;;;;10.30;4.15;;;7.80;76.60;;;;;;5094642;28;20411;-63
2022/01/31 03:21:07;;;;;;;9.95;3.65;;;7.80;76.70;;;;;;5094550;28;20047;-64
2022/01/31 03:23:34;;;;;;;9.80;3.70;;;7.90;77.60;;;;;;5094179;28;20059;-63
2022/01/31 03:25:59;;;;;;;6.80;2.97;;;7.80;77.00;;;;;;5111868;28;20028;-64
2022/01/31 03:28:25;;;;;;;10.70;3.63;;;7.90;77.20;;;;;;5094464;28;20105;-63
2022/01/31 03:30:51;;;;;;;13.00;3.85;;;7.90;77.20;;;;;;5095417;28;20290;-63
2022/01/31 03:33:17;;;;;;;10.20;3.47;;;7.90;77.30;;;;;;5095252;28;20054;-63
2022/01/31 03:35:43;;;;;;;10.32;3.08;;;8.00;77.40;;;;;;5077333;28;20017;-64
2022/01/31 03:38:09;;;;;;;7.55;2.92;;;8.00;77.30;;;;;;5094604;28;20028;-64
2022/01/31 03:40:35;;;;;;;9.98;3.53;;;8.10;77.40;;;;;;5093378;28;20062;-64
2022/01/31 03:43:01;;;;;;;11.85;3.22;;;8.10;77.30;;;;;;5093938;28;20028;-64
2022/01/31 03:45:32;;;;;;;7.65;2.90;;;8.10;77.40;;;;;;5077111;28;20058;-64
2022/01/31 03:48:08;;;;;;;;;;;8.10;77.40;;;;;;5078933;28;20020;-64
2022/01/31 03:50:34;;;;;;;9.63;2.53;;;8.20;77.30;;;;;;5093913;28;19911;-64
2022/01/31 03:53:00;;;;;;;8.27;2.83;;;8.20;77.20;;;;;;5077460;28;20020;-64
2022/01/31 03:55:25;;;;;;;9.07;3.08;;;8.20;77.30;;;;;;5077059;28;20024;-64
2022/01/31 03:57:54;;;;;;;6.55;2.55;;;8.20;77.30;;;;;;5094203;28;20110;-64
2022/01/31 04:00:38;;;;;;;7.00;2.22;;;8.20;77.40;;;;;;5094623;28;20050;-64
2022/01/31 04:03:04;;;;;;;10.13;2.20;;;8.20;77.50;;;;;;5095206;28;20040;-64
2022/01/31 04:05:31;;;;;;;10.38;2.45;;;8.20;77.50;;;;;;5094373;28;20321;-64
2022/01/31 04:07:57;;;;;;;8.90;1.88;;;8.20;77.50;;;;;;5095183;28;20024;-64
2022/01/31 04:10:23;;;;;;;11.90;2.65;;;8.20;77.60;;;;;;5093337;28;20093;-64
2022/01/31 04:12:49;;;;;;;9.52;2.50;;;8.30;77.60;;;;;;5094666;28;20043;-64
2022/01/31 04:15:15;;;;;;;12.85;2.38;;;8.30;77.60;;;;;;5094570;28;20039;-64
2022/01/31 04:17:40;;;;;;;14.35;2.47;;;8.30;77.60;;;;;;5095056;28;20039;-64
2022/01/31 04:20:08;;;;;;;8.32;1.95;;;8.30;77.50;;;;;;5094263;28;20099;-64
2022/01/31 04:22:38;;;;;;;10.80;2.95;;;8.30;77.50;;;;;;5095080;28;20028;-64
2022/01/31 04:25:06;;;;;;;9.45;2.63;;;8.30;77.50;;;;;;5094596;28;20039;-64
2022/01/31 04:27:44;;;;;;;8.20;2.35;;;8.30;77.40;;;;;;5093875;28;20040;-64
2022/01/31 04:30:12;;;;;;;14.10;2.80;;;8.30;77.30;;;;;;5093676;28;20130;-64
2022/01/31 04:32:37;;;;;;;10.60;2.42;;;8.40;77.30;;;;;;5094511;28;20048;-64
2022/01/31 04:35:04;;;;;;;8.90;2.13;;;8.30;77.10;;;;;;5093710;28;20028;-64
2022/01/31 04:37:29;;;;;;;13.60;2.30;;;8.30;77.20;;;;;;5094412;28;20404;-64
2022/01/31 04:39:55;;;;;;;11.77;2.33;;;8.40;77.30;;;;;;5094839;28;20089;-64
2022/01/31 04:42:20;;;;;;;10.70;2.30;;;8.30;77.30;;;;;;5094434;28;20048;-64
2022/01/31 04:44:46;;;;;;;14.73;2.40;;;8.40;77.30;;;;;;5094380;28;20036;-64
2022/01/31 04:47:11;;;;;;;10.15;2.38;;;8.40;77.30;;;;;;5094736;28;20036;-64
2022/01/31 04:49:37;;;;;;;9.25;2.60;;;8.30;77.20;;;;;;5094189;28;20040;-64
2022/01/31 04:52:03;;;;;;;13.82;2.58;;;8.30;77.20;;;;;;5094688;28;20047;-64
2022/01/31 04:54:29;;;;;;;11.25;2.38;;;8.30;77.10;;;;;;5094634;28;20047;-64
2022/01/31 04:56:54;;;;;;;18.83;3.78;;;8.30;77.10;;;;;;5094554;28;20032;-63
2022/01/31 04:59:20;;;;;;;8.30;1.95;;;8.30;77.10;;;;;;5094558;28;20040;-64
2022/01/31 05:01:48;;;;;;;10.43;2.15;;;8.20;77.10;;;;;;5092888;28;20054;-64
2022/01/31 05:04:14;;;;;;;11.93;2.90;;;8.30;77.10;;;;;;5094018;28;20357;-64
2022/01/31 05:06:41;;;;;;;11.00;2.40;;;8.30;77.10;;;;;;5093879;28;20036;-64
2022/01/31 05:09:09;;;;;;;11.60;2.22;;;8.30;77.10;;;;;;5093551;28;20028;-64
2022/01/31 05:11:34;;;;;;;16.25;3.15;;;8.20;77.20;;;;;;5093960;28;20070;-64
2022/01/31 05:14:00;;;;;;;12.32;2.50;;;8.20;77.20;;;;;;5094629;28;20067;-64
2022/01/31 05:16:26;;;;;;;12.63;1.85;;;8.20;77.10;;;;;;5093811;28;20067;-64
2022/01/31 05:18:51;;;;;;;11.85;2.58;;;8.20;77.00;;;;;;5094289;28;20441;-64
2022/01/31 05:21:17;;;;;;;9.45;2.03;;;8.30;77.00;;;;;;5093927;28;20058;-64
2022/01/31 05:23:42;;;;;;;11.77;2.95;;;8.20;76.90;;;;;;5097292;28;20357;-64
2022/01/31 05:26:08;;;;;;;10.85;2.60;;;8.20;76.90;;;;;;5098013;28;20120;-64
2022/01/31 05:28:33;;;;;;;8.82;1.98;;;8.20;76.90;;;;;;5097175;28;20024;-63
2022/01/31 05:31:00;;;;;;;10.65;2.47;;;8.20;77.60;;;;;;5097168;28;20024;-63
2022/01/31 05:33:25;;;;;;;10.43;2.63;;;8.20;76.90;;;;;;5096095;28;20487;-63
2022/01/31 05:35:52;;;;;;;9.68;2.60;;;8.20;77.00;;;;;;5097930;28;20090;-63
2022/01/31 05:38:18;;;;;;;12.30;2.22;;;8.10;76.90;;;;;;5092432;28;20024;-64
2022/01/31 05:40:44;;;;;;;15.30;2.40;;;8.10;77.00;;;;;;5096605;28;20035;-64
2022/01/31 05:43:09;;;;;;;12.52;2.30;;;8.10;77.00;;;;;;5097577;28;20031;-63
2022/01/31 05:45:35;;;;;;;13.68;2.25;;;8.10;77.10;;;;;;5097606;28;20032;-63
2022/01/31 05:48:00;;;;;;;8.60;2.20;;;8.10;77.00;;;;;;5097705;28;20044;-63
2022/01/31 05:50:26;;;;;;;9.45;2.33;;;8.10;76.80;;;;;;5096742;28;20040;-63
2022/01/31 05:52:52;;;;;;;8.18;1.92;;;8.00;76.90;;;;;;5097587;28;20040;-63
2022/01/31 05:55:17;;;;;;;5.25;1.83;;;7.90;77.00;;;;;;5097261;28;20094;-63
2022/01/31 05:57:43;;;;;;;7.07;1.42;;;7.90;77.30;;;;;;5093518;28;20524;-63
2022/01/31 06:00:10;;;;;;;7.25;1.40;;;7.80;77.30;;;;;;5095625;28;20070;-63
2022/01/31 06:02:35;;;;;;;5.60;1.67;;;7.80;77.40;;;;;;5096266;28;20039;-64
2022/01/31 06:05:03;;;;;;;6.75;1.55;;;7.80;77.30;;;;;;5094098;28;20031;-64
2022/01/31 06:07:29;;;;;;;6.77;1.63;;;7.70;77.40;;;;;;5094552;28;20403;-64
2022/01/31 06:09:54;;;;;;;5.30;1.23;;;7.70;77.40;;;;;;5095871;28;20028;-63
2022/01/31 06:12:20;;;;;;;11.77;2.10;;;7.70;77.40;;;;;;5095978;28;20433;-63
2022/01/31 06:14:45;;;;;;;7.72;1.92;;;7.70;77.40;;;;;;5078965;28;20373;-63
2022/01/31 06:17:11;;;;;;;6.03;1.80;;;7.70;77.40;;;;;;5096105;28;20024;-63
2022/01/31 06:19:37;;;;;;;8.32;1.70;;;7.70;77.40;;;;;;5097023;28;20076;-63
2022/01/31 06:22:02;;;;;;;12.63;2.30;;;7.80;77.50;;;;;;5097134;28;20070;-63
2022/01/31 06:24:28;;;;;;;6.93;1.50;;;7.70;77.60;;;;;;5097267;28;20536;-63
2022/01/31 06:26:54;;;;;;;10.27;1.80;;;7.60;77.70;;;;;;5085429;28;20472;-63
2022/01/31 06:29:21;;;;;;;9.43;2.17;;;7.60;77.90;;;;;;5103178;28;20051;-63
2022/01/31 06:31:53;;;;;;;7.03;1.80;;;7.60;77.90;;;;;;5096001;28;20028;-64
2022/01/31 06:34:19;;;;;;;11.05;2.03;;;7.60;78.00;;;;;;5077325;28;20066;-64
2022/01/31 06:36:45;;;;;;;6.82;2.08;;;7.60;78.00;;;;;;5096241;28;20035;-64
2022/01/31 06:39:11;;;;;;;10.57;2.30;;;7.60;78.00;;;;;;5078675;28;20028;-64
2022/01/31 06:41:36;;;;;;;6.75;1.80;;;7.60;78.10;;;;;;5078586;28;20123;-64
2022/01/31 06:44:02;;;;;;;10.95;2.10;;;7.70;78.10;;;;;;5096601;28;20074;-64
2022/01/31 06:46:28;;;;;;;12.32;2.15;;;7.70;78.10;;;;;;5096068;28;20020;-64
2022/01/31 06:48:53;;;;;;;12.83;2.53;;;7.60;78.10;;;;;;5096346;28;20126;-64
2022/01/31 06:51:19;;;;;;;14.10;2.53;;;7.60;78.20;;;;;;5096352;28;20031;-64
2022/01/31 06:53:48;;;;;;;12.52;2.90;;;7.60;78.50;;;;;;5096718;28;20024;-64
2022/01/31 06:56:15;;;;;;;10.87;2.60;;;7.60;78.60;;;;;;5094956;28;20024;-64
2022/01/31 06:58:41;;;;;;;16.45;3.28;;;7.50;78.80;;;;;;5095335;28;20040;-64
2022/01/31 07:01:07;;;;;;;13.77;2.57;;;7.60;79.00;;;;;;5095650;28;20028;-64
2022/01/31 07:03:36;;;;;;;11.57;2.30;;;7.60;78.90;;;;;;5094526;28;20081;-64
2022/01/31 07:06:02;;;;;;;14.68;2.78;;;7.70;78.80;;;;;;5096333;28;20043;-64
2022/01/31 07:08:27;;;;;;;14.75;2.60;;;7.80;78.70;;;;;;5089906;28;20044;-65
2022/01/31 07:10:53;;;;;;;9.15;2.13;;;7.80;78.60;;;;;;5096234;28;20077;-65
2022/01/31 07:13:37;;;;;;;13.33;2.87;;;7.80;78.50;;;;;;5094279;28;20024;-64
2022/01/31 07:16:04;;;;;;;8.00;2.35;;;7.80;78.50;;;;;;5094601;28;20028;-65
2022/01/31 07:18:31;;;;;;;9.63;2.22;;;7.90;78.50;;;;;;5093305;28;20089;-65
2022/01/31 07:20:57;;;;;;;10.70;1.67;;;7.90;78.40;;;;;;5092087;28;20081;-66
2022/01/31 07:23:27;;;;;;;11.63;2.28;;;7.90;78.40;;;;;;5092215;28;20103;-65
2022/01/31 07:25:54;;;;;;;14.13;2.20;;;7.80;78.30;;;;;;5092929;28;20116;-64
2022/01/31 07:28:19;;;;;;;13.60;2.20;;;7.80;78.40;;;;;;5092033;28;20146;-64
2022/01/31 07:30:51;;;;;;;11.10;2.53;;;7.80;78.50;;;;;;5092409;28;20111;-64
2022/01/31 07:33:18;;;;;;;7.55;1.67;;;7.80;78.60;;;;;;5090225;28;20170;-65
2022/01/31 07:35:46;;;;;;;9.77;2.38;;;7.70;78.50;;;;;;5090210;28;20077;-64
2022/01/31 07:38:13;;;;;;;12.23;2.28;;;7.70;78.70;;;;;;5095035;28;20039;-64
2022/01/31 07:40:39;;;;;;;9.57;2.07;;;7.70;78.70;;;;;;5094799;28;20065;-65
2022/01/31 07:43:05;;;;;;;9.73;2.20;;;7.70;78.70;;;;;;5094736;28;20102;-66
2022/01/31 07:45:32;;;;;;;10.60;2.28;;;7.70;78.70;;;;;;5093775;28;20032;-64
2022/01/31 07:47:58;;;;;;;9.10;2.08;;;7.70;78.70;;;;;;5077282;28;20409;-64
2022/01/31 07:50:23;;;;;;;6.10;1.48;;;7.70;78.70;;;;;;5095686;28;20032;-64
2022/01/31 07:52:49;;;;;;;8.43;2.10;;;7.70;78.70;;;;;;5094577;28;20024;-64
2022/01/31 07:55:15;;;;;;;6.47;1.73;;;7.70;79.30;;;;;;5094492;28;20031;-64
2022/01/31 07:57:42;;;;;;;12.65;2.45;;;7.70;78.70;;;;;;5093938;28;20024;-64
2022/01/31 08:00:08;;;;;;;11.52;2.65;;;7.70;78.80;;;;;;5095304;28;20093;-64
2022/01/31 08:02:41;;;;;;;13.25;3.05;;;7.70;78.90;;;;;;5094547;28;20108;-64
2022/01/31 08:05:08;;;;;;;7.78;2.20;;;7.70;78.90;;;;;;5077693;28;20032;-64
2022/01/31 08:07:34;;;;;;;9.97;2.50;;;7.80;78.90;;;;;;5076806;28;20369;-63
2022/01/31 08:10:02;;;;;;;10.50;2.40;;;7.70;78.90;;;;;;5094781;28;20039;-63
2022/01/31 08:12:28;;;;;;;7.93;1.90;;;7.70;79.00;;;;;;5091700;28;20032;-63
2022/01/31 08:15:00;;;;;;;8.70;2.00;;;7.80;79.10;;;;;;5091847;28;20032;-63
2022/01/31 08:17:26;;;;;;;11.37;2.27;;;7.80;79.00;;;;;;5073778;28;20032;-64
2022/01/31 08:19:52;;;;;;;12.30;2.90;;;7.80;79.00;;;;;;5084332;28;20115;-63
2022/01/31 08:22:17;;;;;;;11.23;2.00;;;7.80;79.00;;;;;;5086174;28;20031;-64
2022/01/31 08:24:43;;;;;;;11.98;2.83;;;7.80;79.10;;;;;;5087707;28;20127;-64
2022/01/31 08:27:08;;;;;;;10.87;2.47;;;7.80;79.10;;;;;;5094992;28;20036;-65
2022/01/31 08:29:37;;;;;;;16.33;2.97;;;7.80;79.10;;;;;;5103970;28;20459;-64
2022/01/31 08:32:17;;;;;;;11.60;2.20;;;7.80;79.20;;;;;;5093787;28;20059;-64
2022/01/31 08:37:27;;;;;;;12.98;3.83;;;7.80;79.30;;;;;;5091595;28;20028;-65
2022/01/31 08:39:53;;;;;;;10.57;2.35;;;7.80;79.30;;;;;;5090308;28;20051;-65
2022/01/31 08:42:19;;;;;;;11.80;2.70;;;7.80;79.40;;;;;;5092719;28;20123;-65
2022/01/31 08:44:47;;;;;;;11.70;2.30;;;7.80;79.40;;;;;;5093815;28;20034;-65
2022/01/31 08:47:14;;;;;;;14.70;3.28;;;7.80;79.50;;;;;;5075954;28;20109;-65
2022/01/31 08:49:39;;;;;;;16.65;2.65;;;7.80;79.40;;;;;;5093268;28;20063;-65
2022/01/31 08:52:05;;;;;;;16.05;3.10;;;7.80;79.20;;;;;;5093856;28;20048;-65
2022/01/31 08:54:31;;;;;;;11.73;2.53;;;7.80;79.20;;;;;;5094306;28;20053;-64
2022/01/31 08:56:57;;;;;;;10.02;2.78;;;7.80;79.20;;;;;;5073336;28;20032;-64
2022/01/31 08:59:23;;;;;;;10.90;2.95;;;7.80;79.20;;;;;;5095860;28;20509;-63
2022/01/31 09:01:54;;;;;;;15.13;3.15;;;7.80;79.20;;;;;;5103742;28;20039;-64
2022/01/31 09:04:35;;;;;;;18.67;3.00;;;7.90;79.20;;;;;;5098041;28;20056;-64
2022/01/31 09:07:03;;;;;;;16.58;3.08;;;7.90;79.20;;;;;;5094193;28;20040;-63
2022/01/31 09:09:32;;;;;;;15.97;2.70;;;7.80;79.20;;;;;;5098183;28;20126;-63
2022/01/31 09:11:58;;;;;;;16.90;3.15;;;7.90;79.30;;;;;;5095102;28;20355;-63
2022/01/31 09:14:25;;;;;;;14.18;2.40;;;7.90;79.20;;;;;;5099738;28;20078;-64
2022/01/31 09:16:51;;;;;;;11.98;2.53;;;7.90;79.20;;;;;;5116439;28;20027;-64
2022/01/31 09:19:17;;;;;;;17.58;3.75;;;7.80;79.20;;;;;;5107419;28;20032;-64
2022/01/31 09:21:44;;;;;;;15.68;3.20;;;7.80;79.40;;;;;;5107577;28;20040;-64
2022/01/31 09:24:10;;;;;;;14.40;3.17;;;7.80;79.50;;;;;;5112582;28;20464;-64
2022/01/31 09:26:37;;;;;;;15.73;2.90;;;7.80;79.40;;;;;;5115579;28;20039;-64
2022/01/31 09:29:03;;;;;;;13.40;3.47;;;7.80;79.50;;;;;;5099859;28;20051;-64
2022/01/31 09:31:29;;;;;;;15.50;3.80;;;7.80;79.50;;;;;;5095265;28;20016;-64
2022/01/31 09:33:54;;;;;;;17.27;3.80;;;7.80;79.50;;;;;;5094625;28;20044;-64
2022/01/31 09:36:22;;;;;;;18.98;3.45;;;7.70;79.50;;;;;;5097036;28;20044;-64
2022/01/31 09:38:48;;;;;;;14.77;3.83;;;7.80;79.70;;;;;;5098271;28;20479;-64
2022/01/31 09:41:21;;;;;;;15.17;3.73;;;7.80;79.70;;;;;;5099329;28;20020;-64
2022/01/31 09:48:55;;;;;;;20.33;3.65;;;7.90;79.60;;;;;;5104148;28;20329;-63
2022/01/31 09:51:23;;;;;;;17.67;3.80;;;7.90;79.50;;;;;;5098783;28;20353;-64
2022/01/31 09:54:02;;;;;;;14.23;3.45;;;7.90;79.50;;;;;;5112254;28;20080;-63
2022/01/31 09:56:32;;;;;;;13.07;2.42;;;7.90;79.50;;;;;;5100010;28;20036;-63
2022/01/31 09:58:59;;;;;;;18.10;4.50;;;7.90;79.40;;;;;;5111287;28;20360;-63
2022/01/31 10:01:34;;;;;;;21.33;3.88;;;7.90;79.40;;;;;;5109834;28;20101;-63
2022/01/31 10:04:03;;;;;;;17.65;3.55;;;7.90;79.50;;;;;;5117367;28;20023;-63
2022/01/31 10:06:32;;;;;;;18.30;3.90;;;7.90;79.60;;;;;;5117340;28;20368;-63
2022/01/31 10:09:08;;;;;;;18.70;4.15;;;7.90;79.70;;;;;;5108175;28;20047;-63
2022/01/31 10:12:12;;;;;;;17.83;4.47;;;7.90;79.80;;;;;;5109375;28;20024;-63
2022/01/31 10:17:39;;;;;;;14.07;3.17;;;7.80;79.90;;;;;;5095903;28;20032;-63
2022/01/31 10:20:29;;;;;;;21.52;3.65;;;7.80;79.90;;;;;;5095847;28;20060;-63
2022/01/31 10:22:55;;;;;;;18.40;4.13;;;7.90;79.90;;;;;;5097236;28;20036;-63
2022/01/31 10:25:23;;;;;;;19.98;4.07;;;7.90;79.80;;;;;;5093058;28;20111;-63
2022/01/31 10:27:51;;;;;;;22.33;4.20;;;7.90;79.90;;;;;;5093849;28;20028;-63
2022/01/31 10:30:26;;;;;;;19.40;4.50;;;7.80;79.90;;;;;;5093654;28;20024;-63
2022/01/31 10:32:54;;;;;;;23.83;4.60;;;7.80;80.00;;;;;;5111417;27;21112;-63
2022/01/31 10:35:28;;;;;;;20.48;4.43;;;7.90;80.20;;;;;;5095713;28;20086;-63
2022/01/31 10:37:56;;;;;;;28.05;5.15;;;7.80;80.00;;;;;;5093467;28;20020;-63
2022/01/31 10:54:10;;;;;;;16.83;3.33;;;8.10;79.70;;;;;;5094993;28;20059;-63
2022/01/31 10:56:35;;;;;;;;;;;8.10;79.60;;;;;;5094612;28;20035;-62
2022/01/31 10:59:07;;;;;;;21.83;4.47;;;8.10;79.60;;;;;;5096737;28;19908;-63
2022/01/31 11:01:33;;;;;;;22.65;4.72;;;8.10;79.60;;;;;;5094448;28;20072;-63
2022/01/31 11:04:03;;;;;;;17.05;3.92;;;8.10;79.60;;;;;;5096224;28;20036;-63
2022/01/31 11:06:31;;;;;;;18.65;3.97;;;8.10;79.80;;;;;;5094000;28;20459;-63
2022/01/31 11:09:02;;;;;;;20.13;5.13;;;8.20;79.70;;;;;;5093016;28;20463;-63
2022/01/31 11:11:29;;;;;;;20.70;3.65;;;8.20;79.70;;;;;;5095196;28;20036;-64
2022/01/31 11:13:55;;;;;;;13.48;3.00;;;8.20;79.70;;;;;;5096438;28;20024;-63
2022/01/31 11:16:22;;;;;;;20.27;3.93;;;8.20;79.60;;;;;;5090687;28;20052;-63
2022/01/31 11:18:48;;;;;;;18.25;4.13;;;8.20;79.60;;;;;;5087641;28;20074;-63
2022/01/31 11:21:14;;;;;;;15.48;3.38;;;8.30;79.70;;;;;;5094087;28;20089;-64
2022/01/31 11:23:43;;;;;;;16.93;3.67;;;8.20;79.70;;;;;;5090901;28;20025;-64
2022/01/31 11:26:11;;;;;;;20.23;3.88;;;8.30;79.80;;;;;;5109461;28;20107;-64
2022/01/31 11:28:41;;;;;;;12.77;3.40;;;8.30;79.80;;;;;;5093689;28;20026;-64
2022/01/31 11:31:07;;;;;;;15.52;3.92;;;8.30;79.80;;;;;;5095456;28;20020;-64
2022/01/31 11:33:35;;;;;;;12.77;3.00;;;8.30;79.80;;;;;;5094561;28;20039;-64
2022/01/31 11:36:01;;;;;;;14.27;2.80;;;8.30;79.80;;;;;;5092128;28;20016;-63
2022/01/31 11:38:29;;;;;;;12.77;3.10;;;8.20;79.80;;;;;;5090964;28;20020;-64
2022/01/31 11:41:01;;;;;;;15.65;3.95;;;8.20;79.90;;;;;;5075320;28;20111;-63
2022/01/31 11:43:27;;;;;;;16.65;4.15;;;8.20;80.00;;;;;;5093155;28;20372;-63
2022/01/31 11:45:53;;;;;;;11.13;2.97;;;8.30;80.00;;;;;;5092802;28;20032;-63
2022/01/31 11:48:23;;;;;;;14.75;3.05;;;8.30;80.00;;;;;;5092692;28;20036;-63
2022/01/31 11:50:53;;;;;;;18.60;3.53;;;8.30;80.00;;;;;;5092940;28;20028;-63
2022/01/31 11:53:36;;;;;;;10.65;2.88;;;8.30;80.00;;;;;;5094671;28;20039;-63
2022/01/31 11:56:14;;;;;;;12.45;2.60;;;8.40;80.10;;;;;;5094187;28;20309;-63
2022/01/31 11:58:48;;;;;;;12.43;2.92;;;8.40;80.00;;;;;;5090205;28;20036;-63
2022/01/31 12:01:14;;;;;;;11.15;3.00;;;8.40;80.00;;;;;;5093207;28;20417;-63
2022/01/31 12:04:13;;;;;;;12.32;2.67;;;8.40;80.00;;;;;;5093592;28;20324;-63
2022/01/31 12:06:39;;;;;;;11.18;3.47;;;8.50;80.00;;;;;;5049957;28;20044;-63
2022/01/31 12:09:11;;;;;;;11.32;2.90;;;8.50;79.90;;;;;;5092234;28;20073;-63
2022/01/31 12:12:09;;;;;;;10.80;3.15;;;8.40;79.90;;;;;;5093477;28;20063;-63
2022/01/31 12:15:02;;;;;;;13.82;2.50;;;8.40;80.10;;;;;;5092542;28;20024;-63
2022/01/31 12:18:00;;;;;;;17.38;4.40;;;8.40;80.30;;;;;;5089387;28;20029;-63
2022/01/31 12:23:48;;;;;;;14.07;3.33;;;8.40;80.20;;;;;;5093387;28;20040;-63
2022/01/31 12:26:34;;;;;;;16.23;4.53;;;8.40;80.20;;;;;;5091810;28;20031;-63
2022/01/31 12:29:07;;;;;;;16.77;4.18;;;8.40;80.20;;;;;;5107212;28;20044;-63
2022/01/31 12:31:41;;;;;;;11.60;3.03;;;8.40;80.20;;;;;;5092888;28;20043;-63
2022/01/31 12:34:32;;;;;;;18.55;3.97;;;8.40;80.30;;;;;;5091348;28;20044;-63
2022/01/31 12:37:00;;;;;;;12.85;3.75;;;8.40;80.30;;;;;;5083592;28;20024;-64
2022/01/31 12:39:30;;;;;;;15.93;3.80;;;8.40;80.40;;;;;;5090702;28;20028;-63
2022/01/31 12:42:03;;;;;;;13.70;3.58;;;8.40;80.50;;;;;;5095545;28;20047;-63
2022/01/31 12:44:31;;;;;;;13.50;3.55;;;8.40;80.40;;;;;;5090252;28;20118;-63
2022/01/31 12:47:15;;;;;;;15.43;3.35;;;8.40;80.40;;;;;;5090888;28;20032;-64
2022/01/31 12:49:42;;;;;;;16.98;3.40;;;8.40;80.40;;;;;;5092660;28;20028;-64
2022/01/31 12:52:10;;;;;;;14.27;3.97;;;8.40;80.50;;;;;;5106450;28;20024;-64
2022/01/31 12:54:36;;;;;;;14.02;3.17;;;8.40;80.60;;;;;;5093723;28;20024;-63
2022/01/31 12:57:11;;;;;;;17.63;3.00;;;8.30;80.70;;;;;;5095963;28;20027;-63
2022/01/31 12:59:39;;;;;;;12.30;3.20;;;8.30;80.80;;;;;;5087600;28;20025;-63
2022/01/31 13:02:07;;;;;;;18.67;3.22;;;8.30;80.90;;;;;;5080790;28;20032;-63
2022/01/31 13:04:33;;;;;;;13.90;3.40;;;8.30;80.90;;;;;;5092651;28;20040;-63
2022/01/31 13:07:05;;;;;;;12.82;3.20;;;8.30;81.00;;;;;;5094604;28;20028;-64
2022/01/31 13:09:37;;;;;;;15.10;3.38;;;8.40;81.10;;;;;;5094096;28;20043;-64
2022/01/31 13:12:15;;;;;;;11.98;3.17;;;8.40;81.10;;;;;;5080044;28;20028;-63
2022/01/31 13:14:45;;;;;;;15.80;3.22;;;8.30;81.00;;;;;;5088492;28;20032;-64
2022/01/31 13:17:15;;;;;;;15.85;3.45;;;8.30;81.00;;;;;;5093123;28;20024;-64
2022/01/31 13:19:53;;;;;;;15.65;3.63;;;8.30;81.10;;;;;;5092582;28;20061;-63
2022/01/31 13:22:32;;;;;;;13.63;3.28;;;8.40;81.10;;;;;;5076384;28;20032;-63
2022/01/31 13:25:10;;;;;;;20.42;3.38;;;8.30;81.00;;;;;;5093183;28;20047;-64
2022/01/31 13:27:40;;;;;;;16.55;3.38;;;8.40;81.10;;;;;;5074377;28;20033;-64